Airfield :
LOGIN :

Register | Disclaimer

   EN    FR    IT 

 










Legend :    VFR   Marginal VFR   IFR   Intensive IFR   Very Intensive IFR
Visi :
Ceiling :
>= 8 km
>= 3000ft
5 to 8 km
1000 to 3000 ft
1500m to 5 km
500 to 1000 ft
800 to 1500m
200 to 500 ft
< 800m
< 200 ft
Symbols :   Thunderstorms  Fog  Heavy snow  Heavy precipitations  Wind > 20 kt
SIGMETs :     Misc.  Thunderstorms  Icing  Turbulence  Mountain Waves  Volcanic Ashes






- Airport Elevation : 13 ft
- IATA code : GOA


LIMJ - Genoa Cristoforo Colombo

CURRENT METAR :
  • 211220Z 13014KT 9999 FEW027 SCT060 19/13 Q1023

EXPIRED METARs :
  • 211150Z 13013KT 9999 FEW027 SCT060 19/13 Q1023 /
  • 211120Z 11012KT 9999 FEW028 BKN060 19/12 Q1023
  • 211050Z 12013KT 9999 SCT030 BKN045 18/12 Q1024
  • 211020Z 12013KT 9999 SCT030 BKN045 19/12 Q1024
  • 210950Z 10008KT 060V130 9999 SCT030 BKN045 19/12 Q1024

TAF TAF LIMJ
Valid from the 21 at 12:00 until the 22 at 12:00 UTC


211100Z 2112/2212 06006KT 9999 SCT020 SCT040
TEMPO 2112/2116 13012KT
BECMG 2208/2210 12012KT



MET'MAP, your aeronautical weather chart ! - Copyright ORBIFLY December 2007 - Disclaimer

ORBIFLY MET'MAP TEAM :

Programming & Development : Alexandra Zaïnal
Concept & original design : Baudouin d'Aumeries
Assistance for programming : Marc-Olivier Méhu
Technical & hardware support : Manuel Goepfert

Contact : metmap@orbifly.com




SOURCES & CREDITS :

   NOAA